createdAt,value
2024-02-18T00:00:20.481Z,-0.02
2024-02-18T00:01:28.915Z,0.16
2024-02-18T00:02:41.032Z,0.18
2024-02-18T00:04:01.158Z,0.15
2024-02-18T00:05:11.094Z,0.03
2024-02-18T00:09:44.325Z,0.01
2024-02-18T00:10:55.801Z,0.00
2024-02-18T00:12:12.993Z,0.02
2024-02-18T00:13:27.660Z,-0.13
2024-02-18T00:14:44.369Z,0.02
2024-02-18T00:15:51.533Z,0.06
2024-02-18T00:17:28.007Z,0.06
2024-02-18T00:18:42.004Z,-0.03
2024-02-18T00:19:52.596Z,0.00
2024-02-18T00:21:25.314Z,-0.05
2024-02-18T00:22:35.498Z,0.06
2024-02-18T00:25:09.318Z,0.17
2024-02-18T00:26:30.094Z,0.10
2024-02-18T00:28:09.077Z,0.12
2024-02-18T00:29:16.345Z,0.16
2024-02-18T00:30:22.062Z,0.21
2024-02-18T00:31:28.578Z,0.03
2024-02-18T00:32:39.611Z,0.02
2024-02-18T00:33:51.110Z,0.15
2024-02-18T00:35:02.122Z,0.21
2024-02-18T00:36:16.056Z,0.28
2024-02-18T00:37:49.476Z,0.34
2024-02-18T00:38:58.422Z,0.37
2024-02-18T00:40:10.881Z,0.39
2024-02-18T00:41:25.275Z,0.38
2024-02-18T00:42:31.315Z,0.16
2024-02-18T00:43:56.206Z,0.28
2024-02-18T00:45:10.748Z,0.16
2024-02-18T00:46:28.489Z,0.29
2024-02-18T00:48:10.295Z,0.30
2024-02-18T00:49:21.113Z,0.28
2024-02-18T00:50:27.760Z,0.25
2024-02-18T00:51:43.601Z,0.28
2024-02-18T02:46:27.172Z,0.69
2024-02-18T02:47:31.824Z,0.56
2024-02-18T02:48:39.772Z,0.63
2024-02-18T02:58:44.416Z,0.68
2024-02-18T02:59:50.946Z,0.88
2024-02-18T03:00:54.753Z,0.83
2024-02-18T03:02:03.452Z,0.92
2024-02-18T03:03:11.164Z,0.93
2024-02-18T03:04:18.298Z,0.88
2024-02-18T03:05:25.609Z,0.98
2024-02-18T03:06:31.902Z,0.90
2024-02-18T03:07:45.733Z,0.86
2024-02-18T03:16:18.065Z,1.18
2024-02-18T03:17:22.850Z,1.15
2024-02-18T03:18:27.735Z,0.97
2024-02-18T03:19:35.473Z,0.96
2024-02-18T03:20:43.374Z,0.97
2024-02-18T03:21:57.782Z,0.86
2024-02-18T03:23:13.447Z,1.07
2024-02-18T03:24:21.425Z,1.18
2024-02-18T03:25:29.352Z,1.14
2024-02-18T03:26:37.305Z,1.09
2024-02-18T03:27:44.312Z,1.15
2024-02-18T03:28:49.330Z,1.21
2024-02-18T03:30:00.051Z,1.06
2024-02-18T03:31:09.095Z,0.99
2024-02-18T03:32:27.880Z,1.02
2024-02-18T03:33:32.682Z,0.86
2024-02-18T03:38:06.043Z,0.86
2024-02-18T03:39:14.562Z,0.98
2024-02-18T03:40:18.671Z,1.12
2024-02-18T03:41:29.549Z,0.97
2024-02-18T03:42:48.205Z,1.04
2024-02-18T03:43:54.306Z,1.10
2024-02-18T03:45:04.308Z,1.10
2024-02-18T03:46:14.141Z,1.07
2024-02-18T03:47:24.889Z,1.21
2024-02-18T03:48:31.879Z,1.15
2024-02-18T03:49:38.353Z,1.11
2024-02-18T03:50:49.050Z,1.22
2024-02-18T03:51:57.580Z,1.21
2024-02-18T03:53:01.703Z,1.31
2024-02-18T03:54:10.692Z,1.22
2024-02-18T03:55:22.869Z,1.24
2024-02-18T03:56:28.744Z,1.28
2024-02-18T03:57:31.598Z,1.34
2024-02-18T03:58:35.804Z,1.29
2024-02-18T03:59:44.073Z,1.34
2024-02-18T04:00:52.674Z,1.41
2024-02-18T04:01:59.021Z,1.31
2024-02-18T04:03:06.132Z,1.38
2024-02-18T04:04:12.907Z,1.24
2024-02-18T04:05:23.624Z,1.24
2024-02-18T04:06:26.751Z,1.21
2024-02-18T04:07:34.518Z,1.41
2024-02-18T04:08:52.675Z,1.46
2024-02-18T04:10:02.281Z,1.35
2024-02-18T04:11:06.938Z,1.46
2024-02-18T04:12:10.013Z,1.46
2024-02-18T04:13:13.030Z,1.34
2024-02-18T04:14:16.562Z,1.44
2024-02-18T04:15:22.459Z,1.48
2024-02-18T04:16:31.197Z,1.54
2024-02-18T04:17:39.310Z,1.52
2024-02-18T04:18:44.217Z,1.60
2024-02-18T04:19:52.586Z,1.44
2024-02-18T04:20:58.967Z,1.49
2024-02-18T04:22:03.198Z,1.60
2024-02-18T04:23:12.019Z,1.53
2024-02-18T04:24:17.845Z,1.50
2024-02-18T04:25:24.796Z,1.50
2024-02-18T04:26:32.631Z,1.58
2024-02-18T04:27:40.643Z,1.59
2024-02-18T04:28:48.807Z,1.55
2024-02-18T04:29:55.234Z,1.62
2024-02-18T04:31:06.320Z,1.68
2024-02-18T04:32:13.427Z,1.70
2024-02-18T04:33:16.434Z,1.54
2024-02-18T04:34:30.251Z,1.53
2024-02-18T04:35:38.740Z,1.69
2024-02-18T04:36:43.521Z,1.70
2024-02-18T04:37:48.165Z,1.39
2024-02-18T04:39:11.296Z,1.55
2024-02-18T04:40:22.458Z,1.53
2024-02-18T04:41:28.706Z,1.60
2024-02-18T04:52:35.187Z,1.87
2024-02-18T04:53:39.749Z,1.82
2024-02-18T04:54:46.203Z,1.95
2024-02-18T04:55:50.219Z,2.03
2024-02-18T04:56:55.880Z,1.96
2024-02-18T04:58:01.154Z,2.03
2024-02-18T04:59:05.152Z,2.03
2024-02-18T05:00:13.127Z,1.93
2024-02-18T05:01:19.542Z,1.91
2024-02-18T05:02:26.137Z,2.11
2024-02-18T05:03:33.160Z,2.15
2024-02-18T05:04:45.071Z,1.94
2024-02-18T05:05:48.012Z,1.93
2024-02-18T05:06:52.987Z,2.09
2024-02-18T05:07:55.756Z,2.02
2024-02-18T05:09:00.930Z,1.96
2024-02-18T05:10:09.722Z,2.18
2024-02-18T05:11:15.149Z,2.29
2024-02-18T05:12:31.198Z,2.35
2024-02-18T05:13:39.933Z,2.37
2024-02-18T05:14:44.983Z,2.37
2024-02-18T05:15:54.163Z,2.47
2024-02-18T05:17:00.862Z,2.40
2024-02-18T05:18:08.477Z,2.20
2024-02-18T05:19:11.773Z,2.24
2024-02-18T05:20:17.386Z,2.30
2024-02-18T05:21:20.443Z,2.31
2024-02-18T05:22:33.720Z,2.40
2024-02-18T05:23:41.904Z,2.35
2024-02-18T05:25:16.961Z,2.31
2024-02-18T05:26:31.303Z,2.35
2024-02-18T05:27:46.990Z,2.39
2024-02-18T05:28:52.622Z,2.37
2024-02-18T05:30:05.468Z,2.39
2024-02-18T05:31:24.512Z,2.47
2024-02-18T05:34:01.197Z,2.36
2024-02-18T05:35:35.892Z,2.38
2024-02-18T05:36:45.464Z,2.56
2024-02-18T05:37:59.669Z,2.53
2024-02-18T05:43:14.977Z,2.50
2024-02-18T05:44:23.246Z,2.53
2024-02-18T05:45:38.727Z,2.53
2024-02-18T05:46:48.867Z,2.54
2024-02-18T05:47:53.104Z,2.54
2024-02-18T05:48:57.483Z,2.60
2024-02-18T05:50:03.980Z,2.57
2024-02-18T05:51:15.118Z,2.63
2024-02-18T05:54:24.036Z,2.71
2024-02-18T05:57:14.308Z,2.70
2024-02-18T05:58:21.109Z,2.63
2024-02-18T05:59:30.940Z,2.61
2024-02-18T06:00:33.804Z,2.64
2024-02-18T06:01:36.684Z,2.62
2024-02-18T06:02:41.546Z,2.56
2024-02-18T06:03:46.801Z,2.41
2024-02-18T06:04:55.384Z,2.43
2024-02-18T06:05:58.998Z,2.52
2024-02-18T06:07:02.667Z,2.51
2024-02-18T06:08:09.548Z,2.67
2024-02-18T06:09:16.655Z,2.73
2024-02-18T06:10:24.124Z,2.81
2024-02-18T06:11:31.559Z,2.84
2024-02-18T06:12:36.558Z,2.93
2024-02-18T06:13:43.403Z,2.95
2024-02-18T06:14:47.412Z,2.95
2024-02-18T06:16:00.227Z,2.89
2024-02-18T06:17:14.097Z,2.76
2024-02-18T06:18:21.133Z,2.89
2024-02-18T06:19:24.058Z,2.82
2024-02-18T06:20:29.221Z,2.71
2024-02-18T06:21:33.292Z,2.73
2024-02-18T06:22:45.743Z,2.89
2024-02-18T06:23:48.928Z,2.87
2024-02-18T06:25:18.452Z,2.79
2024-02-18T06:26:22.226Z,2.82
2024-02-18T06:27:31.321Z,2.78
2024-02-18T06:28:45.780Z,2.90
2024-02-18T06:29:52.050Z,2.86
2024-02-18T06:31:17.140Z,2.81
2024-02-18T06:32:44.710Z,2.99
2024-02-18T06:33:53.123Z,3.00
2024-02-18T06:34:55.627Z,3.04
2024-02-18T06:36:00.557Z,3.03
2024-02-18T06:37:21.209Z,2.78
2024-02-18T06:38:23.315Z,2.83
2024-02-18T06:39:25.649Z,2.73
2024-02-18T06:40:28.791Z,2.74
2024-02-18T06:41:31.448Z,2.77
2024-02-18T06:42:36.739Z,2.92
2024-02-18T06:43:41.999Z,2.88
2024-02-18T06:44:46.552Z,2.59
2024-02-18T06:45:48.709Z,2.69
2024-02-18T06:46:52.825Z,2.73
2024-02-18T06:47:55.100Z,2.84
2024-02-18T06:48:57.167Z,2.67
2024-02-18T06:50:07.442Z,2.74
2024-02-18T06:51:09.836Z,2.74
2024-02-18T06:52:23.609Z,2.97
2024-02-18T06:53:25.783Z,3.03
2024-02-18T06:54:27.879Z,3.05
2024-02-18T06:55:30.016Z,2.84
2024-02-18T06:56:32.025Z,3.06
2024-02-18T06:57:40.685Z,3.14
2024-02-18T06:59:00.283Z,3.07
2024-02-18T07:00:13.776Z,3.06
2024-02-18T07:01:20.392Z,3.16
2024-02-18T07:02:22.624Z,3.33
2024-02-18T07:03:24.604Z,3.11
2024-02-18T07:04:27.520Z,3.12
2024-02-18T07:05:32.375Z,3.09
2024-02-18T07:06:34.378Z,3.29
2024-02-18T07:07:38.965Z,3.27
2024-02-18T07:08:41.182Z,3.25
2024-02-18T07:09:49.049Z,3.15
2024-02-18T07:10:52.987Z,3.41
2024-02-18T07:11:55.542Z,3.32
2024-02-18T07:13:00.651Z,3.27
2024-02-18T07:14:02.769Z,2.92
2024-02-18T07:15:07.907Z,3.04
2024-02-18T07:16:10.177Z,3.18
2024-02-18T07:17:13.989Z,3.21
2024-02-18T07:18:17.761Z,3.14
2024-02-18T07:19:21.079Z,3.30
2024-02-18T07:20:23.973Z,3.29
2024-02-18T07:21:25.978Z,3.39
2024-02-18T07:22:28.185Z,3.41
2024-02-18T07:23:30.079Z,3.48
2024-02-18T07:24:32.137Z,3.27
2024-02-18T07:25:35.044Z,3.39
2024-02-18T07:26:38.597Z,3.48
2024-02-18T07:27:40.587Z,3.42
2024-02-18T07:28:42.617Z,3.30
2024-02-18T07:29:44.534Z,3.17
2024-02-18T07:30:51.854Z,3.12
2024-02-18T07:31:55.516Z,3.32
2024-02-18T07:32:57.874Z,3.21
2024-02-18T07:34:00.313Z,3.33
2024-02-18T07:35:02.540Z,3.22
2024-02-18T07:36:05.840Z,3.25
2024-02-18T07:37:07.836Z,3.33
2024-02-18T07:38:09.731Z,3.23
2024-02-18T07:39:12.644Z,3.42
2024-02-18T07:40:14.821Z,3.55
2024-02-18T07:41:16.856Z,3.66
2024-02-18T07:42:19.695Z,3.32
2024-02-18T07:43:21.619Z,3.32
2024-02-18T07:44:23.907Z,3.37
2024-02-18T07:45:26.492Z,3.46
2024-02-18T07:46:29.642Z,3.53
2024-02-18T07:47:33.107Z,3.32
2024-02-18T07:48:36.879Z,3.06
2024-02-18T07:49:39.302Z,3.16
2024-02-18T07:50:45.961Z,3.20
2024-02-18T07:51:48.034Z,3.26
2024-02-18T07:52:49.864Z,3.43
2024-02-18T07:53:55.015Z,3.30
2024-02-18T07:54:57.310Z,3.41
2024-02-18T07:55:59.543Z,3.38
2024-02-18T07:57:01.988Z,3.39
2024-02-18T07:58:04.059Z,3.44
2024-02-18T07:59:06.890Z,3.32
2024-02-18T08:00:09.066Z,3.35
2024-02-18T08:01:12.163Z,3.33
2024-02-18T08:02:14.501Z,2.92
2024-02-18T08:03:16.522Z,3.05
2024-02-18T08:04:21.110Z,3.02
2024-02-18T08:05:24.000Z,3.18
2024-02-18T08:06:30.743Z,3.21
2024-02-18T08:07:33.318Z,3.19
2024-02-18T08:08:36.569Z,3.08
2024-02-18T08:09:38.690Z,3.13
2024-02-18T08:10:40.757Z,3.10
2024-02-18T08:11:42.838Z,2.83
2024-02-18T08:12:44.962Z,3.30
2024-02-18T08:13:47.004Z,3.19
2024-02-18T08:14:49.371Z,3.04
2024-02-18T08:15:52.973Z,3.08
2024-02-18T08:16:57.626Z,3.16
2024-02-18T08:18:01.048Z,3.15
2024-02-18T08:19:03.415Z,3.31
2024-02-18T08:20:05.771Z,3.02
2024-02-18T08:21:10.951Z,2.76
2024-02-18T08:22:14.289Z,2.91
2024-02-18T08:23:16.477Z,2.97
2024-02-18T08:24:18.599Z,3.00
2024-02-18T08:25:21.690Z,3.10
2024-02-18T08:26:27.025Z,3.10
2024-02-18T08:27:29.443Z,2.97
2024-02-18T08:28:38.824Z,2.87
2024-02-18T08:29:44.312Z,2.88
2024-02-18T08:30:46.937Z,2.93
2024-02-18T08:31:48.866Z,2.85
2024-02-18T08:32:51.039Z,3.04
2024-02-18T08:35:28.545Z,3.19
2024-02-18T08:36:30.599Z,3.29
2024-02-18T08:37:33.501Z,3.04
2024-02-18T08:38:35.434Z,3.30
2024-02-18T08:39:40.526Z,3.50
2024-02-18T08:40:47.625Z,3.28
2024-02-18T08:41:52.426Z,3.04
2024-02-18T08:42:54.783Z,3.24
2024-02-18T08:43:56.980Z,3.21
2024-02-18T08:44:59.178Z,3.47
2024-02-18T08:46:03.858Z,3.50
2024-02-18T08:47:08.881Z,3.52
2024-02-18T08:48:14.752Z,3.40
2024-02-18T08:49:18.075Z,3.48
2024-02-18T08:50:20.650Z,3.65
2024-02-18T08:51:24.271Z,3.69
2024-02-18T08:52:37.067Z,3.29
2024-02-18T08:53:43.707Z,2.94
2024-02-18T08:54:58.636Z,2.80
2024-02-18T08:56:06.541Z,2.92
2024-02-18T08:57:25.940Z,3.03
2024-02-18T08:58:32.803Z,2.89
2024-02-18T08:59:34.941Z,2.87
2024-02-18T09:00:37.086Z,3.10
2024-02-18T09:01:40.507Z,3.38
2024-02-18T09:02:47.473Z,2.99
2024-02-18T09:03:53.474Z,2.85
2024-02-18T09:04:56.038Z,2.76
2024-02-18T09:06:06.571Z,3.06
2024-02-18T09:07:10.496Z,2.89
2024-02-18T09:08:28.326Z,3.25
2024-02-18T09:09:36.138Z,2.79
2024-02-18T09:10:43.841Z,3.09
2024-02-18T09:11:48.230Z,3.14
2024-02-18T09:12:51.204Z,3.07
2024-02-18T09:13:54.627Z,3.37
2024-02-18T09:15:02.971Z,3.60
2024-02-18T09:16:14.254Z,3.56
2024-02-18T09:17:25.262Z,3.48
2024-02-18T09:18:29.646Z,3.80
2024-02-18T09:19:36.664Z,3.85
2024-02-18T09:20:55.505Z,3.91
2024-02-18T09:22:09.011Z,4.12
2024-02-18T09:23:14.741Z,4.27
2024-02-18T09:24:22.545Z,4.49
2024-02-18T09:26:08.603Z,4.31
2024-02-18T09:27:21.206Z,4.59
2024-02-18T09:28:31.462Z,4.71
2024-02-18T09:29:44.500Z,5.17
2024-02-18T09:30:48.243Z,4.87
2024-02-18T09:31:53.018Z,4.41
2024-02-18T09:32:59.546Z,4.53
2024-02-18T09:34:12.200Z,4.49
2024-02-18T09:35:25.145Z,4.77
2024-02-18T09:36:32.508Z,4.86
2024-02-18T09:37:43.395Z,4.60
2024-02-18T09:38:53.622Z,5.12
2024-02-18T09:41:57.939Z,5.31
2024-02-18T09:43:38.106Z,5.32
2024-02-18T09:44:46.782Z,4.84
2024-02-18T09:45:52.149Z,4.90
2024-02-18T09:47:01.117Z,4.93
2024-02-18T09:48:28.257Z,5.05
2024-02-18T09:49:39.866Z,4.77
2024-02-18T09:50:53.536Z,5.10
2024-02-18T09:52:04.125Z,4.94
2024-02-18T09:53:13.221Z,5.05
2024-02-18T09:54:26.408Z,4.91
2024-02-18T09:55:30.475Z,4.49
2024-02-18T09:56:58.313Z,4.53
2024-02-18T09:58:11.320Z,4.54
2024-02-18T09:59:42.257Z,4.45
2024-02-18T10:02:14.213Z,4.57
2024-02-18T10:03:24.386Z,4.25
2024-02-18T10:04:30.961Z,4.12
2024-02-18T10:05:42.994Z,3.88
2024-02-18T10:06:48.073Z,3.72
2024-02-18T10:08:06.398Z,3.84
2024-02-18T10:09:13.500Z,3.92
2024-02-18T10:10:49.718Z,4.09
2024-02-18T10:11:59.289Z,4.17
2024-02-18T10:13:14.041Z,3.63
2024-02-18T10:14:23.694Z,3.73
2024-02-18T10:15:26.955Z,3.70
2024-02-18T10:17:20.156Z,3.57
2024-02-18T10:18:57.614Z,3.68
2024-02-18T10:20:25.978Z,4.00
2024-02-18T10:21:45.439Z,3.69
2024-02-18T10:22:55.895Z,3.51
2024-02-18T10:24:06.409Z,3.60
2024-02-18T10:26:35.349Z,3.63
2024-02-18T10:29:16.939Z,3.70
2024-02-18T10:30:22.178Z,3.31
2024-02-18T10:31:57.080Z,3.21
2024-02-18T10:34:23.834Z,2.99
2024-02-18T10:35:46.894Z,3.02
2024-02-18T10:37:38.428Z,2.73
2024-02-18T10:40:49.164Z,2.82
2024-02-18T10:46:59.723Z,2.40
2024-02-18T10:56:23.664Z,2.32
2024-02-18T10:59:05.439Z,2.57
2024-02-18T11:00:12.095Z,2.73
2024-02-18T11:01:17.276Z,2.49
2024-02-18T11:02:27.283Z,2.76
2024-02-18T11:04:55.579Z,2.81
2024-02-18T11:06:09.317Z,2.68
2024-02-18T11:08:41.880Z,2.78
2024-02-18T11:09:48.233Z,2.75
2024-02-18T11:10:54.799Z,2.74
2024-02-18T11:11:58.201Z,2.81
2024-02-18T11:13:12.421Z,2.61
2024-02-18T11:14:15.993Z,2.89
2024-02-18T11:15:19.834Z,3.18
2024-02-18T11:16:23.409Z,3.10
2024-02-18T11:17:37.197Z,2.89
2024-02-18T11:18:48.356Z,2.80
2024-02-18T11:19:52.751Z,2.89
2024-02-18T11:20:57.515Z,2.77
2024-02-18T11:22:02.120Z,2.68
2024-02-18T11:24:24.869Z,2.85
2024-02-18T11:25:29.993Z,2.82
2024-02-18T11:29:17.437Z,2.63
2024-02-18T11:30:48.203Z,2.82
2024-02-18T11:32:17.436Z,2.50
2024-02-18T11:33:37.947Z,2.47
2024-02-18T11:34:56.248Z,2.44
2024-02-18T11:37:23.040Z,2.54
2024-02-18T11:38:51.067Z,2.55
2024-02-18T11:40:32.277Z,2.55
2024-02-18T11:41:53.899Z,2.60
2024-02-18T11:43:13.543Z,2.90
2024-02-18T11:44:25.047Z,2.73
2024-02-18T11:47:21.663Z,2.71
2024-02-18T11:51:39.280Z,2.81
2024-02-18T11:56:49.963Z,2.77
2024-02-18T11:57:57.574Z,2.83
2024-02-18T11:59:00.437Z,2.79
2024-02-18T12:00:05.189Z,3.09
2024-02-18T12:01:18.188Z,2.85
2024-02-18T12:02:21.916Z,2.82
2024-02-18T12:03:25.740Z,2.81
2024-02-18T12:04:27.961Z,2.73
2024-02-18T12:05:31.334Z,2.85
2024-02-18T12:06:33.640Z,2.86
2024-02-18T12:07:37.753Z,2.92
2024-02-18T12:08:40.162Z,2.95
2024-02-18T12:09:42.548Z,2.78
2024-02-18T12:10:46.705Z,2.73
2024-02-18T12:11:50.303Z,2.96
2024-02-18T12:12:54.915Z,2.71
2024-02-18T12:13:57.005Z,2.71
2024-02-18T12:14:59.314Z,2.81
2024-02-18T12:16:04.723Z,2.74
2024-02-18T12:17:08.262Z,2.59
2024-02-18T12:18:12.144Z,2.51
2024-02-18T12:19:20.273Z,2.35
2024-02-18T12:20:39.969Z,2.42
2024-02-18T12:21:44.381Z,2.53
2024-02-18T12:22:49.871Z,2.73
2024-02-18T12:23:58.195Z,2.74
2024-02-18T12:25:04.590Z,2.59
2024-02-18T12:26:09.739Z,2.43
2024-02-18T12:27:13.226Z,2.54
2024-02-18T12:28:18.506Z,2.64
2024-02-18T12:29:22.664Z,2.59
2024-02-18T12:30:31.084Z,2.70
2024-02-18T12:31:40.159Z,2.81
2024-02-18T12:32:43.956Z,2.84
2024-02-18T12:33:47.319Z,2.57
2024-02-18T12:34:50.356Z,2.65
2024-02-18T12:35:55.063Z,2.60
2024-02-18T12:37:04.136Z,2.84
2024-02-18T12:38:09.386Z,2.75
2024-02-18T12:39:23.137Z,2.56
2024-02-18T12:40:30.586Z,2.61
2024-02-18T12:41:33.209Z,2.68
2024-02-18T12:43:04.556Z,2.57
2024-02-18T12:44:44.673Z,2.75
2024-02-18T12:45:44.210Z,2.67
2024-02-18T12:46:58.441Z,2.66
2024-02-18T12:48:12.361Z,2.57
2024-02-18T12:49:14.833Z,2.64
2024-02-18T12:50:17.606Z,2.49
2024-02-18T12:51:27.156Z,2.70
2024-02-18T12:52:29.764Z,2.76
2024-02-18T12:53:37.211Z,2.77
2024-02-18T12:56:32.593Z,2.51
2024-02-18T12:57:40.733Z,2.58
2024-02-18T13:02:00.226Z,2.57
2024-02-18T13:05:00.145Z,2.25
2024-02-18T13:06:19.469Z,2.14
2024-02-18T13:07:35.430Z,1.99
2024-02-18T13:08:45.658Z,1.82
2024-02-18T13:09:55.151Z,1.75
2024-02-18T13:10:59.381Z,1.55
2024-02-18T13:12:05.451Z,1.45
2024-02-18T13:13:34.533Z,1.50
2024-02-18T13:14:44.003Z,1.65
2024-02-18T13:15:54.595Z,1.57
2024-02-18T13:16:58.772Z,1.49
2024-02-18T13:18:12.532Z,1.58
2024-02-18T13:19:15.464Z,1.53
2024-02-18T13:20:24.507Z,1.21
2024-02-18T13:21:28.112Z,1.51
2024-02-18T13:22:33.157Z,1.54
2024-02-18T13:23:39.198Z,1.44
2024-02-18T13:24:44.668Z,1.31
2024-02-18T13:26:15.202Z,1.53
2024-02-18T13:27:18.291Z,1.36
2024-02-18T13:28:24.406Z,1.21
2024-02-18T13:29:30.224Z,1.34
2024-02-18T13:30:39.507Z,1.51
2024-02-18T13:31:44.392Z,1.48
2024-02-18T13:32:50.569Z,1.40
2024-02-18T13:34:03.676Z,1.62
2024-02-18T13:35:18.810Z,1.07
2024-02-18T13:36:30.419Z,1.31
2024-02-18T13:37:44.058Z,1.25
2024-02-18T13:38:46.680Z,0.99
2024-02-18T13:39:49.094Z,1.16
2024-02-18T13:40:57.679Z,1.14
2024-02-18T13:42:04.006Z,1.20
2024-02-18T13:43:07.736Z,1.10
2024-02-18T13:44:10.944Z,1.13
2024-02-18T13:45:13.986Z,1.07
2024-02-18T13:46:42.284Z,1.07
2024-02-18T13:49:38.252Z,0.91
2024-02-18T13:50:55.375Z,1.03
2024-02-18T13:52:09.220Z,1.09
2024-02-18T13:53:16.125Z,1.14
2024-02-18T13:54:26.005Z,1.05
2024-02-18T13:55:29.690Z,0.96
2024-02-18T13:56:37.659Z,1.14
2024-02-18T13:57:44.497Z,1.08
2024-02-18T13:58:47.386Z,1.17
2024-02-18T13:59:58.166Z,1.16
2024-02-18T14:01:05.511Z,1.05
2024-02-18T14:02:10.107Z,1.08
2024-02-18T14:03:12.726Z,1.06
2024-02-18T14:04:18.305Z,0.95
2024-02-18T14:05:23.575Z,0.96
2024-02-18T14:06:32.939Z,1.11
2024-02-18T14:07:51.854Z,1.20
2024-02-18T14:09:07.707Z,1.05
2024-02-18T14:10:31.425Z,1.17
2024-02-18T14:11:41.953Z,1.09
2024-02-18T14:27:05.068Z,0.69
2024-02-18T14:28:15.223Z,0.81
2024-02-18T14:29:18.422Z,0.96
2024-02-18T14:30:26.691Z,0.82
2024-02-18T14:31:28.879Z,0.84
2024-02-18T14:32:31.647Z,0.74
2024-02-18T14:33:39.191Z,0.82
2024-02-18T14:34:53.038Z,0.81
2024-02-18T14:36:08.209Z,0.80
2024-02-18T14:37:30.580Z,0.70
2024-02-18T14:38:39.439Z,0.67
2024-02-18T14:39:48.237Z,0.53
2024-02-18T14:41:03.274Z,0.54
2024-02-18T14:42:18.321Z,0.52
2024-02-18T14:43:31.608Z,0.65
2024-02-18T14:44:43.692Z,0.76
2024-02-18T14:46:01.135Z,0.70
2024-02-18T14:47:03.565Z,0.70
2024-02-18T14:48:07.863Z,0.64
2024-02-18T14:49:17.366Z,0.64
2024-02-18T14:50:20.977Z,0.46
2024-02-18T14:51:40.575Z,0.51
2024-02-18T14:52:46.924Z,0.39
2024-02-18T14:53:56.041Z,0.42
2024-02-18T14:54:58.641Z,0.57
2024-02-18T14:56:12.382Z,0.54
2024-02-18T14:57:27.159Z,0.60
2024-02-18T14:58:34.658Z,0.57
2024-02-18T14:59:48.507Z,0.46
2024-02-18T15:00:53.050Z,0.63
2024-02-18T15:01:56.520Z,0.49
2024-02-18T15:03:11.954Z,0.49
2024-02-18T15:04:18.440Z,0.34
2024-02-18T15:05:26.793Z,0.36
2024-02-18T15:06:33.834Z,0.35
2024-02-18T15:08:05.369Z,0.33
2024-02-18T15:09:22.973Z,0.20
2024-02-18T15:10:36.666Z,0.05
2024-02-18T15:11:42.261Z,0.21
2024-02-18T15:12:51.552Z,0.25
2024-02-18T15:14:19.628Z,0.19
2024-02-18T15:15:30.526Z,0.23
2024-02-18T15:16:36.789Z,0.34
2024-02-18T15:17:51.640Z,0.02
2024-02-18T15:19:02.066Z,0.01
2024-02-18T15:20:15.948Z,0.01
2024-02-18T15:22:55.204Z,0.10
2024-02-18T15:24:09.151Z,0.11
2024-02-18T15:25:20.464Z,0.11
2024-02-18T15:26:23.870Z,0.08
2024-02-18T15:27:30.218Z,0.23
2024-02-18T15:28:45.922Z,0.22
2024-02-18T15:29:54.443Z,0.24
2024-02-18T15:36:27.631Z,0.17
2024-02-18T15:41:04.944Z,0.37
2024-02-18T15:42:20.791Z,0.05
2024-02-18T15:43:33.322Z,0.24
2024-02-18T15:44:58.574Z,0.27
2024-02-18T15:46:12.449Z,0.02
2024-02-18T15:47:22.409Z,-0.03
2024-02-18T15:48:28.820Z,-0.07
2024-02-18T15:49:34.720Z,0.08
2024-02-18T15:50:37.567Z,0.28
2024-02-18T15:52:04.972Z,0.20
2024-02-18T15:53:11.553Z,0.31
2024-02-18T15:54:37.963Z,0.37
2024-02-18T16:03:17.699Z,0.24
2024-02-18T16:04:33.674Z,0.17
2024-02-18T16:05:40.491Z,0.22
2024-02-18T16:06:50.060Z,-0.01
2024-02-18T16:08:25.836Z,0.11
2024-02-18T16:10:04.627Z,0.23
2024-02-18T16:11:20.826Z,0.08
2024-02-18T16:12:29.213Z,0.26
2024-02-18T16:13:50.692Z,0.32
2024-02-18T16:15:04.935Z,0.21
2024-02-18T16:16:28.584Z,0.10
2024-02-18T16:17:33.907Z,0.04
2024-02-18T16:18:41.012Z,0.06
2024-02-18T16:24:01.612Z,0.03
2024-02-18T16:25:14.177Z,0.17
2024-02-18T16:26:27.607Z,0.18
2024-02-18T16:29:31.085Z,0.03
2024-02-18T16:30:46.132Z,-0.10
2024-02-18T16:31:56.395Z,-0.03
2024-02-18T16:35:50.514Z,0.02
2024-02-18T16:37:43.739Z,0.10
2024-02-18T16:39:21.496Z,0.01
2024-02-18T16:42:19.536Z,-0.14
2024-02-18T16:43:50.707Z,-0.03
2024-02-18T16:45:14.182Z,-0.12
2024-02-18T16:47:45.401Z,-0.23
2024-02-18T16:49:41.015Z,-0.20
2024-02-18T16:51:03.915Z,-0.12
2024-02-18T16:52:20.440Z,-0.13
2024-02-18T16:53:43.961Z,-0.26
2024-02-18T16:55:10.296Z,-0.24
2024-02-18T16:56:37.533Z,-0.20
2024-02-18T16:57:42.804Z,-0.20
2024-02-18T16:59:02.309Z,-0.11
2024-02-18T17:02:37.777Z,-0.13
2024-02-18T17:03:48.367Z,-0.01
2024-02-18T17:05:02.275Z,-0.16
2024-02-18T17:07:08.041Z,-0.17
2024-02-18T17:11:14.377Z,-0.16
2024-02-18T17:12:28.424Z,-0.05
2024-02-18T17:13:31.427Z,-0.01
2024-02-18T17:16:38.177Z,-0.08
2024-02-18T17:19:57.573Z,-0.16
2024-02-18T17:21:02.518Z,-0.24
2024-02-18T17:22:13.932Z,-0.27
2024-02-18T17:29:22.307Z,-0.51
2024-02-18T17:32:52.133Z,-0.57
2024-02-18T17:34:08.883Z,-0.52
2024-02-18T17:35:40.444Z,-0.48
2024-02-18T17:37:18.436Z,-0.58
2024-02-18T17:38:53.978Z,-0.74
2024-02-18T17:40:22.000Z,-0.65
2024-02-18T17:42:00.240Z,-0.61
2024-02-18T17:43:15.814Z,-0.65
2024-02-18T17:45:13.695Z,-0.63
2024-02-18T17:46:38.419Z,-0.76
2024-02-18T17:47:58.164Z,-0.67
2024-02-18T17:49:15.911Z,-0.71
2024-02-18T17:50:41.449Z,-0.65
2024-02-18T17:52:36.811Z,-0.60
2024-02-18T17:54:09.040Z,-0.67
2024-02-18T17:55:21.478Z,-0.86
2024-02-18T17:56:33.566Z,-0.77
2024-02-18T17:58:31.302Z,-0.85
2024-02-18T18:00:13.776Z,-0.65
2024-02-18T18:02:48.523Z,-0.44
2024-02-18T18:05:22.556Z,-0.64
2024-02-18T18:06:46.195Z,-0.69
2024-02-18T18:07:54.025Z,-0.70
2024-02-18T18:09:30.311Z,-0.53
2024-02-18T18:10:51.234Z,-0.63
2024-02-18T18:12:11.845Z,-0.86
2024-02-18T18:13:22.858Z,-0.82
2024-02-18T18:14:32.366Z,-0.74
2024-02-18T18:15:37.212Z,-0.68
2024-02-18T18:16:45.688Z,-0.72
2024-02-18T18:17:59.862Z,-0.64
2024-02-18T18:19:10.438Z,-0.65
2024-02-18T18:20:47.795Z,-0.59
2024-02-18T18:22:02.211Z,-0.66
2024-02-18T18:23:04.999Z,-0.79
2024-02-18T18:24:09.800Z,-0.81
2024-02-18T18:25:14.700Z,-0.60
2024-02-18T18:27:22.912Z,-0.54
2024-02-18T18:31:09.267Z,-0.52
2024-02-18T18:35:47.109Z,-0.83
2024-02-18T20:17:34.389Z,-1.16
2024-02-18T20:18:44.141Z,-1.18
2024-02-18T20:19:51.449Z,-1.24
2024-02-18T20:20:56.076Z,-1.35
2024-02-18T20:22:01.443Z,-1.31
2024-02-18T20:23:18.330Z,-1.46
2024-02-18T20:24:46.792Z,-1.32
2024-02-18T23:04:03.746Z,-1.73
2024-02-18T23:05:19.929Z,-1.85
2024-02-18T23:06:41.507Z,-1.72
2024-02-18T23:08:10.828Z,-1.74
2024-02-18T23:09:41.122Z,-1.88
2024-02-18T23:11:12.009Z,-1.63
2024-02-18T23:12:25.351Z,-1.86
2024-02-18T23:13:34.453Z,-1.80
2024-02-18T23:14:48.185Z,-1.66
2024-02-18T23:15:56.036Z,-1.92
2024-02-18T23:17:09.028Z,-1.77
2024-02-18T23:18:23.969Z,-1.63
2024-02-18T23:19:33.656Z,-1.74
2024-02-18T23:20:48.409Z,-1.73
2024-02-18T23:22:00.898Z,-1.67
2024-02-18T23:23:24.293Z,-1.64
2024-02-18T23:24:34.187Z,-1.52
2024-02-18T23:25:45.357Z,-1.53
2024-02-18T23:27:01.261Z,-1.69
2024-02-18T23:28:12.342Z,-1.81
2024-02-18T23:29:22.028Z,-1.65
2024-02-18T23:30:26.498Z,-1.66
2024-02-18T23:31:39.783Z,-1.65
2024-02-18T23:32:49.198Z,-1.67
2024-02-18T23:34:02.084Z,-1.74
2024-02-18T23:35:17.895Z,-1.66
2024-02-18T23:36:31.352Z,-1.62
2024-02-18T23:37:52.014Z,-1.74
2024-02-18T23:39:01.593Z,-1.65
2024-02-18T23:40:06.191Z,-1.54
2024-02-18T23:41:23.290Z,-1.64
2024-02-18T23:42:30.642Z,-1.54
2024-02-18T23:43:38.461Z,-1.73
2024-02-18T23:44:46.659Z,-1.70
2024-02-18T23:46:07.172Z,-1.73
2024-02-18T23:47:18.237Z,-1.88
2024-02-18T23:48:26.874Z,-1.56
2024-02-18T23:51:16.255Z,-1.66
2024-02-18T23:52:50.624Z,-1.51
